createdAt,value
2019-01-12T00:01:37.288Z,16.03
2019-01-12T00:04:27.704Z,17.30
2019-01-12T00:07:18.427Z,17.87
2019-01-12T00:10:09.242Z,17.43
2019-01-12T00:12:59.271Z,16.93
2019-01-12T00:15:49.465Z,17.20
2019-01-12T00:18:39.840Z,16.97
2019-01-12T00:21:29.810Z,17.83
2019-01-12T00:24:20.109Z,16.73
2019-01-12T00:27:10.487Z,17.60
2019-01-12T00:30:00.742Z,17.53
2019-01-12T00:32:50.813Z,16.50
2019-01-12T00:35:41.097Z,18.27
2019-01-12T00:38:31.268Z,19.27
2019-01-12T00:41:21.312Z,17.60
2019-01-12T00:44:11.543Z,18.90
2019-01-12T00:47:02.020Z,18.60
2019-01-12T00:49:52.390Z,17.40
2019-01-12T00:52:42.739Z,17.93
2019-01-12T00:55:33.134Z,18.27
2019-01-12T00:58:23.872Z,17.87
2019-01-12T01:01:14.001Z,18.20
2019-01-12T01:04:04.010Z,17.37
2019-01-12T01:06:54.034Z,18.63
2019-01-12T01:09:44.445Z,18.07
2019-01-12T01:12:34.753Z,17.00
2019-01-12T01:15:24.838Z,17.83
2019-01-12T01:18:14.851Z,16.47
2019-01-12T01:21:05.237Z,17.13
2019-01-12T01:23:55.742Z,18.23
2019-01-12T01:26:46.067Z,16.30
2019-01-12T01:29:36.050Z,17.57
2019-01-12T01:32:26.386Z,17.57
2019-01-12T01:35:16.814Z,16.50
2019-01-12T01:38:07.210Z,15.83
2019-01-12T01:40:57.526Z,14.90
2019-01-12T01:43:47.843Z,17.40
2019-01-12T01:46:38.481Z,15.40
2019-01-12T01:49:28.726Z,15.30
2019-01-12T01:52:19.180Z,15.63
2019-01-12T01:55:10.302Z,14.40
2019-01-12T01:58:00.821Z,14.93
2019-01-12T02:00:51.465Z,14.17
2019-01-12T02:03:41.853Z,13.47
2019-01-12T02:06:31.913Z,12.80
2019-01-12T02:09:22.010Z,12.43
2019-01-12T02:12:12.168Z,11.97
2019-01-12T02:15:02.205Z,12.70
2019-01-12T02:17:52.533Z,12.83
2019-01-12T02:20:42.705Z,11.97
2019-01-12T02:23:33.081Z,12.43
2019-01-12T02:26:23.674Z,13.07
2019-01-12T02:29:13.974Z,13.03
2019-01-12T02:32:03.996Z,13.63
2019-01-12T02:34:54.239Z,13.30
2019-01-12T02:37:44.482Z,12.37
2019-01-12T02:40:35.578Z,13.63
2019-01-12T02:43:25.823Z,13.73
2019-01-12T02:46:17.238Z,14.07
2019-01-12T02:49:08.814Z,14.07
2019-01-12T02:51:58.951Z,15.20
2019-01-12T02:54:49.118Z,13.93
2019-01-12T02:57:39.414Z,13.67
2019-01-12T03:00:29.310Z,15.03
2019-01-12T03:03:19.257Z,14.50
2019-01-12T03:06:09.306Z,14.00
2019-01-12T03:08:59.679Z,15.40
2019-01-12T03:11:50.027Z,14.07
2019-01-12T03:14:40.368Z,14.73
2019-01-12T03:17:30.722Z,15.03
2019-01-12T03:20:21.106Z,15.13
2019-01-12T03:23:11.602Z,15.17
2019-01-12T03:26:01.709Z,15.03
2019-01-12T03:28:52.060Z,15.40
2019-01-12T03:31:42.332Z,15.20
2019-01-12T03:34:32.581Z,14.87
2019-01-12T03:37:23.315Z,13.93
2019-01-12T03:40:16.929Z,14.27
2019-01-12T03:43:07.739Z,13.23
2019-01-12T03:45:57.926Z,14.73
2019-01-12T03:48:48.229Z,15.07
2019-01-12T03:51:39.995Z,15.03
2019-01-12T03:54:30.369Z,14.50
2019-01-12T03:57:20.721Z,15.23
2019-01-12T04:00:29.678Z,16.50
2019-01-12T04:03:19.991Z,16.53
2019-01-12T04:06:10.603Z,15.97
2019-01-12T04:09:01.074Z,16.10
2019-01-12T04:11:52.106Z,17.43
2019-01-12T04:14:42.013Z,17.53
2019-01-12T04:17:32.278Z,17.27
2019-01-12T04:20:23.128Z,16.13
2019-01-12T04:23:13.063Z,16.13
2019-01-12T04:26:03.655Z,15.20
2019-01-12T04:28:53.906Z,16.83
2019-01-12T04:31:44.157Z,17.50
2019-01-12T04:34:34.147Z,16.17
2019-01-12T04:37:24.604Z,16.57
2019-01-12T04:40:19.481Z,15.90
2019-01-12T04:43:09.544Z,16.03
2019-01-12T04:45:59.735Z,16.33
2019-01-12T04:48:50.006Z,16.47
2019-01-12T04:51:40.211Z,16.27
2019-01-12T04:54:30.570Z,16.93
2019-01-12T04:57:20.714Z,17.43
2019-01-12T05:00:13.909Z,17.93
2019-01-12T05:03:03.866Z,18.17
2019-01-12T05:05:54.177Z,18.47
2019-01-12T05:08:44.091Z,18.50
2019-01-12T05:11:34.394Z,17.87
2019-01-12T05:14:24.443Z,17.93
2019-01-12T05:17:14.889Z,19.20
2019-01-12T05:20:06.974Z,19.03
2019-01-12T05:22:57.351Z,19.40
2019-01-12T05:25:49.255Z,20.60
2019-01-12T05:28:39.601Z,20.07
2019-01-12T05:31:29.884Z,18.87
2019-01-12T05:34:20.423Z,19.80
2019-01-12T05:37:10.862Z,19.87
2019-01-12T05:40:01.083Z,18.30
2019-01-12T05:42:51.373Z,19.97
2019-01-12T05:45:41.653Z,20.67
2019-01-12T05:48:31.626Z,19.97
2019-01-12T05:51:22.059Z,18.80
2019-01-12T05:54:12.415Z,19.33
2019-01-12T05:57:02.398Z,19.00
2019-01-12T05:59:52.306Z,20.40
2019-01-12T06:02:42.583Z,21.37
2019-01-12T06:05:32.955Z,21.07
2019-01-12T06:08:23.053Z,20.33
2019-01-12T06:11:13.374Z,19.73
2019-01-12T06:14:03.403Z,20.20
2019-01-12T06:16:53.796Z,20.57
2019-01-12T06:19:44.046Z,20.67
2019-01-12T06:22:34.382Z,20.73
2019-01-12T06:25:24.314Z,20.63
2019-01-12T06:28:14.537Z,19.93
2019-01-12T06:31:04.569Z,19.30
2019-01-12T06:33:54.566Z,19.33
2019-01-12T06:36:44.562Z,19.43
2019-01-12T06:39:34.813Z,19.40
2019-01-12T06:42:25.207Z,18.43
2019-01-12T06:45:17.295Z,19.70
2019-01-12T06:48:07.404Z,17.77
2019-01-12T06:50:57.718Z,17.23
2019-01-12T06:53:48.010Z,17.53
2019-01-12T06:56:38.202Z,17.77
2019-01-12T06:59:28.539Z,17.87
2019-01-12T07:02:18.765Z,17.00
2019-01-12T07:05:08.986Z,17.27
2019-01-12T07:07:59.091Z,16.83
2019-01-12T07:10:49.358Z,16.50
2019-01-12T07:13:39.502Z,16.90
2019-01-12T07:16:29.878Z,15.93
2019-01-12T07:19:19.966Z,15.97
2019-01-12T07:22:09.854Z,15.27
2019-01-12T07:25:00.366Z,19.40
2019-01-12T07:27:50.615Z,14.20
2019-01-12T07:30:40.894Z,13.90
2019-01-12T07:33:30.825Z,13.67
2019-01-12T07:36:21.114Z,12.53
2019-01-12T07:39:11.150Z,13.33
2019-01-12T07:42:01.642Z,19.00
2019-01-12T07:44:52.418Z,13.53
2019-01-12T07:47:42.323Z,13.10
2019-01-12T07:50:32.574Z,11.40
2019-01-12T07:53:22.887Z,11.63
2019-01-12T07:56:12.886Z,10.60
2019-01-12T07:59:03.459Z,10.80
2019-01-12T08:01:53.520Z,10.50
2019-01-12T08:04:43.898Z,10.57
2019-01-12T08:07:34.288Z,9.50
2019-01-12T08:10:27.522Z,9.63
2019-01-12T08:13:18.409Z,8.90
2019-01-12T08:16:08.496Z,9.67
2019-01-12T08:18:58.846Z,8.73
2019-01-12T08:21:48.830Z,9.63
2019-01-12T08:24:38.806Z,8.67
2019-01-12T08:27:29.219Z,7.73
2019-01-12T08:30:19.754Z,8.37
2019-01-12T08:33:09.706Z,8.67
2019-01-12T08:35:59.746Z,8.10
2019-01-12T08:38:49.956Z,7.13
2019-01-12T08:41:40.693Z,7.10
2019-01-12T08:44:31.147Z,7.10
2019-01-12T08:47:21.489Z,6.20
2019-01-12T08:50:17.611Z,6.90
2019-01-12T08:53:08.442Z,6.23
2019-01-12T08:55:59.018Z,6.20
2019-01-12T08:58:49.374Z,6.07
2019-01-12T09:01:39.674Z,5.63
2019-01-12T09:04:29.542Z,5.60
2019-01-12T09:07:19.845Z,4.97
2019-01-12T09:10:13.658Z,5.17
2019-01-12T09:13:03.994Z,5.30
2019-01-12T09:15:54.230Z,5.50
2019-01-12T09:18:44.406Z,5.30
2019-01-12T09:21:34.822Z,5.07
2019-01-12T09:24:25.034Z,4.33
2019-01-12T09:27:15.457Z,4.77
2019-01-12T09:30:09.007Z,5.27
2019-01-12T09:32:59.078Z,5.37
2019-01-12T09:35:49.273Z,4.87
2019-01-12T09:38:39.710Z,4.63
2019-01-12T09:41:30.366Z,4.20
2019-01-12T09:44:20.608Z,5.00
2019-01-12T09:47:10.909Z,5.60
2019-01-12T09:50:00.890Z,4.63
2019-01-12T09:52:51.074Z,4.30
2019-01-12T09:55:41.218Z,4.27
2019-01-12T09:58:31.807Z,4.10
2019-01-12T10:01:21.938Z,4.50
2019-01-12T10:04:12.205Z,5.03
2019-01-12T10:07:02.186Z,4.40
2019-01-12T10:09:52.249Z,4.57
2019-01-12T10:12:42.606Z,4.73
2019-01-12T10:15:33.594Z,4.40
2019-01-12T10:18:23.846Z,4.30
2019-01-12T10:21:14.607Z,4.30
2019-01-12T10:24:04.881Z,4.63
2019-01-12T10:26:58.556Z,4.50
2019-01-12T10:29:46.265Z,5.17
2019-01-12T10:32:36.578Z,5.50
2019-01-12T10:35:27.073Z,4.90
2019-01-12T10:38:17.249Z,4.10
2019-01-12T10:41:07.146Z,4.37
2019-01-12T10:43:57.369Z,4.20
2019-01-12T10:46:47.514Z,4.17
2019-01-12T10:49:37.734Z,4.10
2019-01-12T10:52:27.774Z,4.27
2019-01-12T10:55:17.778Z,4.27
2019-01-12T10:58:09.937Z,4.13
2019-01-12T11:01:00.041Z,3.83
2019-01-12T11:03:50.454Z,3.87
2019-01-12T11:06:40.627Z,3.77
2019-01-12T11:09:30.822Z,4.07
2019-01-12T11:12:21.061Z,3.73
2019-01-12T11:15:13.658Z,3.77
2019-01-12T11:18:04.418Z,4.10
2019-01-12T11:20:54.634Z,4.13
2019-01-12T11:23:44.902Z,4.57
2019-01-12T11:26:34.864Z,4.90
2019-01-12T11:29:24.926Z,3.77
2019-01-12T11:32:15.250Z,4.93
2019-01-12T11:35:06.751Z,3.83
2019-01-12T11:37:57.230Z,4.00
2019-01-12T11:40:47.262Z,4.00
2019-01-12T11:43:37.297Z,4.27
2019-01-12T11:46:27.482Z,4.10
2019-01-12T11:49:18.045Z,4.30
2019-01-12T11:52:08.398Z,4.60
2019-01-12T11:54:58.674Z,4.30
2019-01-12T11:57:48.846Z,3.80
2019-01-12T12:00:39.005Z,4.27
2019-01-12T12:03:29.105Z,3.40
2019-01-12T12:06:19.315Z,3.37
2019-01-12T12:09:09.980Z,3.73
2019-01-12T12:12:00.226Z,4.13
2019-01-12T12:14:50.645Z,4.27
2019-01-12T12:17:40.978Z,4.03
2019-01-12T12:20:31.333Z,4.37
2019-01-12T12:23:22.126Z,3.90
2019-01-12T12:26:12.505Z,4.27
2019-01-12T12:29:02.846Z,4.00
2019-01-12T12:31:53.130Z,3.43
2019-01-12T12:34:43.310Z,4.20
2019-01-12T12:37:33.943Z,4.50
2019-01-12T12:40:24.281Z,3.23
2019-01-12T12:43:14.490Z,3.07
2019-01-12T12:46:04.471Z,3.90
2019-01-12T12:48:55.270Z,3.87
2019-01-12T12:51:45.291Z,3.87
2019-01-12T12:54:35.562Z,5.43
2019-01-12T12:57:32.711Z,9.57
2019-01-12T13:00:20.341Z,14.03
2019-01-12T13:03:10.602Z,8.10
2019-01-12T13:06:00.875Z,5.80
2019-01-12T13:08:51.330Z,5.50
2019-01-12T13:11:42.123Z,3.63
2019-01-12T13:14:32.170Z,3.67
2019-01-12T13:17:22.598Z,3.87
2019-01-12T13:20:14.806Z,4.33
2019-01-12T13:23:04.855Z,4.13
2019-01-12T13:25:54.922Z,4.00
2019-01-12T13:28:45.310Z,4.00
2019-01-12T13:31:36.115Z,3.50
2019-01-12T13:34:26.510Z,4.03
2019-01-12T13:37:16.770Z,4.60
2019-01-12T13:40:08.434Z,4.03
2019-01-12T13:42:58.450Z,3.87
2019-01-12T13:45:48.990Z,3.97
2019-01-12T13:48:39.318Z,4.20
2019-01-12T13:51:29.630Z,4.27
2019-01-12T13:54:19.591Z,4.23
2019-01-12T13:57:09.909Z,3.90
2019-01-12T14:00:00.241Z,4.40
2019-01-12T14:02:50.435Z,4.13
2019-01-12T14:05:40.417Z,3.83
2019-01-12T14:08:30.924Z,3.67
2019-01-12T14:11:21.262Z,3.70
2019-01-12T14:14:11.353Z,4.10
2019-01-12T14:17:02.351Z,3.90
2019-01-12T14:19:52.195Z,4.67
2019-01-12T14:22:42.368Z,4.03
2019-01-12T14:25:32.639Z,4.00
2019-01-12T14:28:22.734Z,4.17
2019-01-12T14:31:13.040Z,4.30
2019-01-12T14:34:03.800Z,4.07
2019-01-12T14:36:54.534Z,4.57
2019-01-12T14:39:44.885Z,4.53
2019-01-12T14:42:36.288Z,4.63
2019-01-12T14:45:31.826Z,4.10
2019-01-12T14:48:21.840Z,5.13
2019-01-12T14:51:12.150Z,4.07
2019-01-12T14:54:02.538Z,4.23
2019-01-12T14:56:53.086Z,4.80
2019-01-12T14:59:42.949Z,4.77
2019-01-12T15:02:33.044Z,5.60
2019-01-12T15:05:25.419Z,4.30
2019-01-12T15:08:15.439Z,4.83
2019-01-12T15:11:05.702Z,4.57
2019-01-12T15:13:56.103Z,4.33
2019-01-12T15:16:46.402Z,4.40
2019-01-12T15:19:36.686Z,4.43
2019-01-12T15:22:27.093Z,4.53
2019-01-12T15:25:17.559Z,4.47
2019-01-12T15:28:09.477Z,4.37
2019-01-12T15:30:59.642Z,4.57
2019-01-12T15:33:50.310Z,4.43
2019-01-12T15:36:40.786Z,4.27
2019-01-12T15:39:31.014Z,5.30
2019-01-12T15:42:21.247Z,5.47
2019-01-12T15:45:14.353Z,5.27
2019-01-12T15:48:05.494Z,4.83
2019-01-12T15:50:55.814Z,5.57
2019-01-12T15:53:46.215Z,4.50
2019-01-12T15:56:36.461Z,4.63
2019-01-12T15:59:26.741Z,3.93
2019-01-12T16:02:16.822Z,5.23
2019-01-12T16:05:07.231Z,5.10
2019-01-12T16:07:57.549Z,4.80
2019-01-12T16:10:47.771Z,5.47
2019-01-12T16:13:37.725Z,5.70
2019-01-12T16:16:28.066Z,5.37
2019-01-12T16:19:18.313Z,5.70
2019-01-12T16:22:08.837Z,5.77
2019-01-12T16:24:59.006Z,5.93
2019-01-12T16:27:49.269Z,5.53
2019-01-12T16:30:39.583Z,5.50
2019-01-12T16:33:30.030Z,5.80
2019-01-12T16:36:20.885Z,5.80
2019-01-12T16:39:11.027Z,5.60
2019-01-12T16:42:01.435Z,5.37
2019-01-12T16:44:51.462Z,5.03
2019-01-12T16:47:41.502Z,5.73
2019-01-12T16:50:31.681Z,6.13
2019-01-12T16:53:21.989Z,8.13
2019-01-12T16:56:12.387Z,5.70
2019-01-12T16:59:02.853Z,5.80
2019-01-12T17:01:53.582Z,5.67
2019-01-12T17:04:44.464Z,5.97
2019-01-12T17:07:34.479Z,5.40
2019-01-12T17:10:24.838Z,6.00
2019-01-12T17:13:15.482Z,6.07
2019-01-12T17:16:05.826Z,5.70
2019-01-12T17:18:56.169Z,6.70
2019-01-12T17:21:46.724Z,8.50
2019-01-12T17:24:37.062Z,7.33
2019-01-12T17:27:27.118Z,7.03
2019-01-12T17:30:19.573Z,6.80
2019-01-12T17:33:09.706Z,6.07
2019-01-12T17:36:00.105Z,7.20
2019-01-12T17:38:50.798Z,6.93
2019-01-12T17:41:40.961Z,6.57
2019-01-12T17:44:31.177Z,6.37
2019-01-12T17:47:21.368Z,6.83
2019-01-12T17:50:13.446Z,6.30
2019-01-12T17:53:03.730Z,7.17
2019-01-12T17:55:54.158Z,6.33
2019-01-12T17:58:44.767Z,6.27
2019-01-12T18:01:34.797Z,6.33
2019-01-12T18:04:25.149Z,6.27
2019-01-12T18:07:15.559Z,6.77
2019-01-12T18:10:07.674Z,6.67
2019-01-12T18:12:58.634Z,6.70
2019-01-12T18:15:49.266Z,7.07
2019-01-12T18:18:39.526Z,5.87
2019-01-12T18:21:29.857Z,5.40
2019-01-12T18:24:19.866Z,5.30
2019-01-12T18:27:10.201Z,5.13
2019-01-12T18:30:00.417Z,4.80
2019-01-12T18:32:50.677Z,5.30
2019-01-12T18:35:40.669Z,5.23
2019-01-12T18:38:31.210Z,4.87
2019-01-12T18:41:21.529Z,4.70
2019-01-12T18:44:11.702Z,5.23
2019-01-12T18:47:01.938Z,5.30
2019-01-12T18:49:52.157Z,5.03
2019-01-12T18:52:42.518Z,5.27
2019-01-12T18:55:32.721Z,4.97
2019-01-12T18:58:23.050Z,5.87
2019-01-12T19:01:13.371Z,4.93
2019-01-12T19:04:03.794Z,4.67
2019-01-12T19:06:54.294Z,4.83
2019-01-12T19:09:44.714Z,6.23
2019-01-12T19:12:35.054Z,6.23
2019-01-12T19:15:27.874Z,5.40
2019-01-12T19:18:18.193Z,5.17
2019-01-12T19:21:08.294Z,5.40
2019-01-12T19:23:58.465Z,4.83
2019-01-12T19:26:48.461Z,5.13
2019-01-12T19:29:38.654Z,4.60
2019-01-12T19:32:28.968Z,4.37
2019-01-12T19:35:19.205Z,4.17
2019-01-12T19:38:09.625Z,4.13
2019-01-12T19:41:00.026Z,4.57
2019-01-12T19:43:50.193Z,4.40
2019-01-12T19:46:40.174Z,5.07
2019-01-12T19:49:30.196Z,4.53
2019-01-12T19:52:20.966Z,5.13
2019-01-12T19:55:11.078Z,5.20
2019-01-12T19:58:01.054Z,5.03
2019-01-12T20:00:51.830Z,4.63
2019-01-12T20:03:42.118Z,4.33
2019-01-12T20:06:32.101Z,4.03
2019-01-12T20:09:22.634Z,4.23
2019-01-12T20:12:13.054Z,4.60
2019-01-12T20:15:03.334Z,4.30
2019-01-12T20:17:53.374Z,5.13
2019-01-12T20:20:43.634Z,4.90
2019-01-12T20:23:33.932Z,4.37
2019-01-12T20:26:24.278Z,4.30
2019-01-12T20:29:20.852Z,4.40
2019-01-12T20:32:44.333Z,3.63
2019-01-12T20:36:22.618Z,4.43
2019-01-12T20:39:33.982Z,3.80
2019-01-12T20:43:00.213Z,3.83
2019-01-12T20:46:18.850Z,4.00
2019-01-12T20:49:36.882Z,3.57
2019-01-12T20:53:20.011Z,3.77
2019-01-12T20:56:23.143Z,3.23
2019-01-12T20:59:28.259Z,2.93
2019-01-12T21:02:35.560Z,3.67
2019-01-12T21:05:43.193Z,3.23
2019-01-12T21:08:47.166Z,2.80
2019-01-12T21:12:13.849Z,3.00
2019-01-12T21:15:18.367Z,3.03
2019-01-12T21:18:08.543Z,2.80
2019-01-12T21:20:58.958Z,2.80
2019-01-12T21:23:49.098Z,2.90
2019-01-12T21:26:39.106Z,2.87
2019-01-12T21:29:35.156Z,3.77
2019-01-12T21:32:21.314Z,3.47
2019-01-12T21:35:11.411Z,3.23
2019-01-12T21:38:01.498Z,3.57
2019-01-12T21:40:51.781Z,3.60
2019-01-12T21:43:42.030Z,3.50
2019-01-12T21:46:32.266Z,3.27
2019-01-12T21:49:23.243Z,3.30
2019-01-12T21:52:13.421Z,3.17
2019-01-12T21:55:03.394Z,3.30
2019-01-12T21:57:53.545Z,3.80
2019-01-12T22:00:43.514Z,3.50
2019-01-12T22:03:33.778Z,3.73
2019-01-12T22:06:24.095Z,3.70
2019-01-12T22:09:14.085Z,2.87
2019-01-12T22:12:04.846Z,3.40
2019-01-12T22:14:55.174Z,2.73
2019-01-12T22:17:45.593Z,3.73
2019-01-12T22:20:35.934Z,2.57
2019-01-12T22:23:25.954Z,3.00
2019-01-12T22:26:16.787Z,2.47
2019-01-12T22:29:07.177Z,2.37
2019-01-12T22:31:57.915Z,2.77
2019-01-12T22:34:48.148Z,2.40
2019-01-12T22:37:38.734Z,2.87
2019-01-12T22:40:28.907Z,2.43
2019-01-12T22:43:19.242Z,2.60
2019-01-12T22:46:09.513Z,2.47
2019-01-12T22:48:59.529Z,2.63
2019-01-12T22:51:49.816Z,2.67
2019-01-12T22:54:40.194Z,2.77
2019-01-12T22:57:30.160Z,2.93
2019-01-12T23:00:55.472Z,2.73
2019-01-12T23:03:49.538Z,3.30
2019-01-12T23:06:39.445Z,3.37
2019-01-12T23:09:29.427Z,3.33
2019-01-12T23:12:19.754Z,4.40
2019-01-12T23:15:10.257Z,4.77
2019-01-12T23:18:00.489Z,5.73
2019-01-12T23:20:50.621Z,6.93
2019-01-12T23:23:40.690Z,6.10
2019-01-12T23:26:31.190Z,6.00
2019-01-12T23:29:21.257Z,6.60
2019-01-12T23:32:11.457Z,7.47
2019-01-12T23:35:01.673Z,8.63
2019-01-12T23:37:52.066Z,9.73
2019-01-12T23:40:42.817Z,12.13
2019-01-12T23:43:32.819Z,11.67
2019-01-12T23:46:23.086Z,10.93
2019-01-12T23:49:13.369Z,11.13
2019-01-12T23:52:03.437Z,10.33
2019-01-12T23:54:53.873Z,9.77
2019-01-12T23:57:43.935Z,10.30
